Friday, January 19, 2018, 10:31 PM EST
Back to Local

KPWM, Portland International Jetport

Location: Portland, ME, United States Lat: 43.65
Local Time: 10:31 PM EST ( 3:31 GMT) Lon: -70.3
Time Zone: US/Eastern Elev: 75 ft

Show me the last for .
Show Decoded

2018-01-19 21:51 METAR KPWM 200251Z 19004KT 10SM BKN037 M01/M06 A2987 RMK AO2 SLP114 T10111056
                 58010 =
2018-01-19 20:51 METAR KPWM 200151Z 20006KT 10SM OVC035 M01/M05 A2990 RMK AO2 SLP127 T10111050 =
2018-01-19 19:51 METAR KPWM 200051Z VRB06KT 10SM OVC035 M01/M05 A2990 RMK AO2 SLP127 T10111050 =
2018-01-19 18:51 METAR KPWM 192351Z 20005KT 10SM OVC034 M01/M05 A2990 RMK AO2 SLP125 T10061050
                 10000 21011 58001 =
2018-01-19 17:51 METAR KPWM 192251Z 20003KT 10SM OVC038 M01/M05 A2990 RMK AO2 SLP125 T10111050 =
2018-01-19 16:51 METAR KPWM 192151Z 20003KT 10SM BKN030 OVC038 M01/M05 A2992 RMK AO2 SLP132
                 T10061050 =
2018-01-19 15:51 METAR KPWM 192051Z 17004KT 10SM OVC037 M01/M04 A2990 RMK AO2 SLP126 T10061044
                 56001 =
2018-01-19 14:51 METAR KPWM 191951Z 18005KT 10SM FEW028 OVC038 M01/M04 A2991 RMK AO2 SLP128
                 T10061044 =
2018-01-19 13:51 METAR KPWM 191851Z 17005KT 10SM SCT026 OVC040 M01/M05 A2990 RMK AO2 SLP124
                 T10061050 =
2018-01-19 12:51 METAR KPWM 191751Z 00000KT 10SM FEW035 BKN043 00/M06 A2990 RMK AO2 SLP127 60000
                 T00001056 10000 21078 56021 =
2018-01-19 11:51 METAR KPWM 191651Z 00000KT 10SM FEW035 OVC042 M02/M06 A2992 RMK AO2 SLP134
                 T10171056 =
2018-01-19 10:51 METAR KPWM 191551Z VRB03KT 10SM BKN042 M03/M06 A2994 RMK AO2 SLP141 P0000
                 T10281056 $ =
2018-01-19 09:51 METAR KPWM 191451Z 29004KT 10SM FEW032 OVC042 M04/M06 A2997 RMK AO2 SLP148 60000
                 T10441061 51009 =
2018-01-19 08:51 METAR KPWM 191351Z 00000KT 9SM OVC043 M06/M07 A2995 RMK AO2 SLP143 T10561067 =
2018-01-19 07:51 METAR KPWM 191251Z 26003KT 8SM BKN035 M07/M08 A2996 RMK AO2 SNE25 SLP145 P0000
                 T10721083 =
2018-01-19 07:31 METAR KPWM 191231Z 00000KT 6SM BR SCT033 BKN120 M07/M08 A2994 RMK AO2 SNE25
                 P0000 T10721083 =
2018-01-19 06:51 METAR KPWM 191151Z 28003KT 2 1/2SM -SN BR OVC030 M07/M09 A2994 RMK AO2 SNB41
                 SLP140 P0000 60000 I6000 T10721089 11072 21117 53012 =
2018-01-19 05:51 METAR KPWM 191051Z 27004KT 10SM BKN065 OVC100 M08/M10 A2992 RMK AO2 SLP134
                 T10781100 =
2018-01-19 04:51 METAR KPWM 190951Z 28004KT 10SM SCT048 BKN120 M09/M11 A2992 RMK AO2 SLP131
                 T10891106 =
2018-01-19 03:51 METAR KPWM 190851Z AUTO 27005KT 10SM CLR M09/M11 A2991 RMK AO2 SLP128 I3000
                 T10891106 50004 =
2018-01-19 02:51 METAR KPWM 190751Z AUTO 00000KT 9SM CLR M11/M11 A2991 RMK AO2 SLP129 I1000
                 T11061111 =
2018-01-19 01:51 METAR KPWM 190651Z AUTO 00000KT 9SM CLR M11/M12 A2991 RMK AO2 SLP128 I1000
                 T11111117 =
2018-01-19 00:51 METAR KPWM 190551Z AUTO 30003KT 8SM CLR M09/M11 A2989 RMK AO2 SLP124 I1000 I6000
                 T10941111 11044 21111 58006 =
2018-01-18 23:51 METAR KPWM 190451Z 00000KT 9SM CLR M09/M10 A2991 RMK AO2 SLP128 LAST T10941100
                 410111106 =
2018-01-18 22:51 METAR KPWM 190351Z 27006KT 10SM CLR M07/M09 A2991 RMK AO2 SLP130 T10721089 =

Support USWX by starting your Amazon purchase here.